Accueil
METAR-TAF:

METAR-TAF

Aéroports :

Statesville Regional Airport

Statesville, Caroline du Nord, États-Unis

latitude: 35-45-55N, longitude: 080-57-24W, altitude: 294 m

Observation

Le bulletin a été fait il y a 26 minutes, à 21:35 UTC
Vent 5 kt de nord/nord-ouest
Température 14°C
Humidité 41%
Pression 1021 hPa
Visibilité: 16.1 km
Ciel clair

METAR: KSVH 202135Z AUTO 33005KT 10SM CLR 14/01 A3015 RMK AO2 T01440008

Heure: 17:01 (22:01 UTC)


TAF: absent

Observations et prévisions météorologiques de plus de 4000 aéroports (messages METAR et TAF).

Les stations disponibles sont représentées par des disques jaunes et rouges sur la carte.

Passer la souris dessus pour voir le nom de la station.

Cliquer dessus pour voir les observations et prévisions météorologiques.

Pour changer de carte: cliquez sur les boutons verts avec une croix noire pour zoomer, sur le bouton vert avec un tiret pour effectuer un zoom arrière, ou sur les flèches vertes pour les cartes adjacentes.


METAR-TAF: